sensor_id;sensor_type;location;lat;lon;timestamp;pressure;altitude;pressure_sealevel;temperature;humidity
43312;BME280;30041;48.300;16.352;2023-03-25T00:00:47;98981.19;;;23.65;42.14
43312;BME280;30041;48.300;16.352;2023-03-25T00:03:13;98985.75;;;23.64;41.87
43312;BME280;30041;48.300;16.352;2023-03-25T00:05:39;98993.88;;;23.64;42.16
43312;BME280;30041;48.300;16.352;2023-03-25T00:08:04;98989.84;;;23.67;42.08
43312;BME280;30041;48.300;16.352;2023-03-25T00:10:30;99000.94;;;23.65;41.97
43312;BME280;30041;48.300;16.352;2023-03-25T00:12:55;99000.38;;;23.68;41.80
43312;BME280;30041;48.300;16.352;2023-03-25T00:15:21;98987.66;;;23.63;41.87
43312;BME280;30041;48.300;16.352;2023-03-25T00:17:46;98989.00;;;23.66;42.01
43312;BME280;30041;48.300;16.352;2023-03-25T00:20:15;99002.53;;;23.66;42.04
43312;BME280;30041;48.300;16.352;2023-03-25T00:22:40;99013.09;;;23.68;41.81
43312;BME280;30041;48.300;16.352;2023-03-25T00:25:09;99008.50;;;23.68;41.75
43312;BME280;30041;48.300;16.352;2023-03-25T00:27:35;99019.88;;;23.70;41.86
43312;BME280;30041;48.300;16.352;2023-03-25T00:30:01;99023.38;;;23.71;41.84
43312;BME280;30041;48.300;16.352;2023-03-25T00:32:27;99024.72;;;23.68;41.87
43312;BME280;30041;48.300;16.352;2023-03-25T00:34:52;99032.84;;;23.68;41.69
43312;BME280;30041;48.300;16.352;2023-03-25T00:37:18;99027.19;;;23.70;41.95
43312;BME280;30041;48.300;16.352;2023-03-25T00:39:44;99040.16;;;23.73;41.71
43312;BME280;30041;48.300;16.352;2023-03-25T00:42:10;99040.44;;;23.71;41.87
43312;BME280;30041;48.300;16.352;2023-03-25T00:44:35;99032.34;;;23.71;41.87
43312;BME280;30041;48.300;16.352;2023-03-25T00:47:01;99037.19;;;23.69;41.85
43312;BME280;30041;48.300;16.352;2023-03-25T00:49:27;99035.28;;;23.70;41.66
43312;BME280;30041;48.300;16.352;2023-03-25T00:51:53;99025.28;;;23.70;42.01
43312;BME280;30041;48.300;16.352;2023-03-25T00:54:19;99037.75;;;23.71;41.81
43312;BME280;30041;48.300;16.352;2023-03-25T00:56:44;99036.91;;;23.71;41.93
43312;BME280;30041;48.300;16.352;2023-03-25T00:59:10;99015.81;;;23.73;41.62
43312;BME280;30041;48.300;16.352;2023-03-25T01:01:37;99023.38;;;23.71;42.06
43312;BME280;30041;48.300;16.352;2023-03-25T01:04:02;99028.53;;;23.72;41.76
43312;BME280;30041;48.300;16.352;2023-03-25T01:06:31;99024.22;;;23.71;41.93
43312;BME280;30041;48.300;16.352;2023-03-25T01:08:59;99016.09;;;23.71;41.75
43312;BME280;30041;48.300;16.352;2023-03-25T01:11:27;99027.47;;;23.73;41.99
43312;BME280;30041;48.300;16.352;2023-03-25T01:13:54;99023.66;;;23.69;41.94
43312;BME280;30041;48.300;16.352;2023-03-25T01:16:21;99008.78;;;23.72;42.06
43312;BME280;30041;48.300;16.352;2023-03-25T01:18:47;99003.13;;;23.73;41.89
43312;BME280;30041;48.300;16.352;2023-03-25T01:21:12;99008.53;;;23.73;41.96
43312;BME280;30041;48.300;16.352;2023-03-25T01:23:38;99005.28;;;23.71;41.63
43312;BME280;30041;48.300;16.352;2023-03-25T01:26:04;99004.44;;;23.71;41.80
43312;BME280;30041;48.300;16.352;2023-03-25T01:28:29;99009.59;;;23.72;41.63
43312;BME280;30041;48.300;16.352;2023-03-25T01:31:06;98996.88;;;23.73;41.93
43312;BME280;30041;48.300;16.352;2023-03-25T01:33:32;98995.00;;;23.73;41.79
43312;BME280;30041;48.300;16.352;2023-03-25T01:35:59;98998.50;;;23.74;41.67
43312;BME280;30041;48.300;16.352;2023-03-25T01:38:25;98993.69;;;23.76;41.74
43312;BME280;30041;48.300;16.352;2023-03-25T01:40:51;98995.56;;;23.75;41.74
43312;BME280;30041;48.300;16.352;2023-03-25T01:43:17;98983.09;;;23.74;41.79
43312;BME280;30041;48.300;16.352;2023-03-25T01:45:43;98990.13;;;23.75;41.59
43312;BME280;30041;48.300;16.352;2023-03-25T01:48:38;98994.47;;;23.71;41.65
43312;BME280;30041;48.300;16.352;2023-03-25T01:53:39;98992.31;;;23.73;41.84
43312;BME280;30041;48.300;16.352;2023-03-25T01:56:06;98986.88;;;23.73;41.66
43312;BME280;30041;48.300;16.352;2023-03-25T01:58:34;98997.19;;;23.76;41.52
43312;BME280;30041;48.300;16.352;2023-03-25T02:01:00;99004.22;;;23.77;41.60
43312;BME280;30041;48.300;16.352;2023-03-25T02:03:27;99017.75;;;23.77;41.87
43312;BME280;30041;48.300;16.352;2023-03-25T02:06:00;99022.59;;;23.75;41.45
43312;BME280;30041;48.300;16.352;2023-03-25T02:08:26;99026.69;;;23.78;41.93
43312;BME280;30041;48.300;16.352;2023-03-25T02:10:52;99030.22;;;23.78;41.49
43312;BME280;30041;48.300;16.352;2023-03-25T02:13:18;99044.81;;;23.77;41.67
43312;BME280;30041;48.300;16.352;2023-03-25T02:21:33;99031.78;;;23.74;41.79
43312;BME280;30041;48.300;16.352;2023-03-25T02:27:31;99012.34;;;23.77;41.68
43312;BME280;30041;48.300;16.352;2023-03-25T02:30:18;99022.59;;;23.75;41.86
43312;BME280;30041;48.300;16.352;2023-03-25T02:38:31;99025.84;;;23.77;41.81
43312;BME280;30041;48.300;16.352;2023-03-25T02:41:07;99030.47;;;23.77;41.64
43312;BME280;30041;48.300;16.352;2023-03-25T02:46:18;99007.75;;;23.78;41.81
43312;BME280;30041;48.300;16.352;2023-03-25T02:49:01;98998.25;;;23.75;41.78
43312;BME280;30041;48.300;16.352;2023-03-25T02:51:31;98993.94;;;23.79;41.90
43312;BME280;30041;48.300;16.352;2023-03-25T02:54:02;98997.75;;;23.78;41.61
43312;BME280;30041;48.300;16.352;2023-03-25T02:56:31;99009.63;;;23.77;41.77
43312;BME280;30041;48.300;16.352;2023-03-25T02:58:59;99005.84;;;23.78;41.57
43312;BME280;30041;48.300;16.352;2023-03-25T03:01:25;98995.84;;;23.79;41.60
43312;BME280;30041;48.300;16.352;2023-03-25T03:03:55;98996.66;;;23.79;41.42
43312;BME280;30041;48.300;16.352;2023-03-25T03:06:21;99005.84;;;23.78;41.84
43312;BME280;30041;48.300;16.352;2023-03-25T03:11:30;99003.97;;;23.79;41.53
43312;BME280;30041;48.300;16.352;2023-03-25T03:17:02;99015.03;;;23.77;41.57
43312;BME280;30041;48.300;16.352;2023-03-25T03:19:47;99016.13;;;23.81;41.75
43312;BME280;30041;48.300;16.352;2023-03-25T03:22:43;99017.47;;;23.79;41.66
43312;BME280;30041;48.300;16.352;2023-03-25T03:25:35;99013.97;;;23.78;41.57
43312;BME280;30041;48.300;16.352;2023-03-25T03:31:00;99018.28;;;23.79;41.35
43312;BME280;30041;48.300;16.352;2023-03-25T03:33:43;99017.47;;;23.79;41.44
43312;BME280;30041;48.300;16.352;2023-03-25T03:36:17;99019.09;;;23.80;41.72
43312;BME280;30041;48.300;16.352;2023-03-25T03:39:30;99025.34;;;23.80;41.62
43312;BME280;30041;48.300;16.352;2023-03-25T03:41:52;99029.41;;;23.83;41.57
43312;BME280;30041;48.300;16.352;2023-03-25T03:44:21;99034.00;;;23.82;41.73
43312;BME280;30041;48.300;16.352;2023-03-25T03:46:57;99037.78;;;23.81;41.79
43312;BME280;30041;48.300;16.352;2023-03-25T03:49:34;99037.78;;;23.81;41.76
43312;BME280;30041;48.300;16.352;2023-03-25T03:54:50;99042.13;;;23.82;41.42
43312;BME280;30041;48.300;16.352;2023-03-25T03:57:38;99052.94;;;23.82;41.72
43312;BME280;30041;48.300;16.352;2023-03-25T04:00:17;99054.81;;;23.82;41.61
43312;BME280;30041;48.300;16.352;2023-03-25T04:02:51;99055.66;;;23.82;41.35
43312;BME280;30041;48.300;16.352;2023-03-25T04:05:19;99054.56;;;23.83;41.36
43312;BME280;30041;48.300;16.352;2023-03-25T04:08:00;99064.59;;;23.83;41.53
43312;BME280;30041;48.300;16.352;2023-03-25T04:13:03;99064.31;;;23.85;41.71
43312;BME280;30041;48.300;16.352;2023-03-25T04:15:31;99067.84;;;23.85;41.51
43312;BME280;30041;48.300;16.352;2023-03-25T04:17:56;99050.78;;;23.85;41.29
43312;BME280;30041;48.300;16.352;2023-03-25T04:20:24;99053.22;;;23.86;41.42
43312;BME280;30041;48.300;16.352;2023-03-25T04:22:51;99057.00;;;23.85;41.62
43312;BME280;30041;48.300;16.352;2023-03-25T04:25:17;99070.53;;;23.85;41.36
43312;BME280;30041;48.300;16.352;2023-03-25T04:27:43;99061.63;;;23.85;41.37
43312;BME280;30041;48.300;16.352;2023-03-25T04:30:10;99066.75;;;23.86;41.26
43312;BME280;30041;48.300;16.352;2023-03-25T04:32:35;99061.31;;;23.86;41.73
43312;BME280;30041;48.300;16.352;2023-03-25T04:35:01;99068.66;;;23.86;41.65
43312;BME280;30041;48.300;16.352;2023-03-25T04:37:27;99066.75;;;23.86;41.45
43312;BME280;30041;48.300;16.352;2023-03-25T04:39:53;99060.53;;;23.86;41.51
43312;BME280;30041;48.300;16.352;2023-03-25T04:42:18;99063.78;;;23.88;41.48
43312;BME280;30041;48.300;16.352;2023-03-25T04:44:44;99056.72;;;23.87;41.52
43312;BME280;30041;48.300;16.352;2023-03-25T04:47:12;99051.31;;;23.87;41.46
43312;BME280;30041;48.300;16.352;2023-03-25T04:49:38;99059.16;;;23.88;41.70
43312;BME280;30041;48.300;16.352;2023-03-25T04:52:04;99064.59;;;23.88;41.72
43312;BME280;30041;48.300;16.352;2023-03-25T04:54:29;99059.16;;;23.88;41.55
43312;BME280;30041;48.300;16.352;2023-03-25T04:56:55;99059.16;;;23.88;41.36
43312;BME280;30041;48.300;16.352;2023-03-25T04:59:23;99069.75;;;23.90;41.65
43312;BME280;30041;48.300;16.352;2023-03-25T05:01:49;99077.84;;;23.90;41.55
43312;BME280;30041;48.300;16.352;2023-03-25T05:04:15;99079.22;;;23.87;41.59
43312;BME280;30041;48.300;16.352;2023-03-25T05:06:44;99086.22;;;23.83;41.48
43312;BME280;30041;48.300;16.352;2023-03-25T05:09:13;99097.06;;;23.83;41.52
43312;BME280;30041;48.300;16.352;2023-03-25T05:11:39;99103.28;;;23.83;41.44
43312;BME280;30041;48.300;16.352;2023-03-25T05:14:05;99103.28;;;23.83;41.52
43312;BME280;30041;48.300;16.352;2023-03-25T05:16:32;99092.19;;;23.85;41.79
43312;BME280;30041;48.300;16.352;2023-03-25T05:18:58;99091.66;;;23.83;41.63
43312;BME280;30041;48.300;16.352;2023-03-25T05:21:23;99089.47;;;23.85;41.80
43312;BME280;30041;48.300;16.352;2023-03-25T05:23:49;99102.47;;;23.83;41.60
43312;BME280;30041;48.300;16.352;2023-03-25T05:26:15;99098.94;;;23.82;41.62
43312;BME280;30041;48.300;16.352;2023-03-25T05:28:40;99106.53;;;23.80;41.28
43312;BME280;30041;48.300;16.352;2023-03-25T05:31:06;99092.16;;;23.80;41.47
43312;BME280;30041;48.300;16.352;2023-03-25T05:33:34;99098.13;;;23.82;41.75
43312;BME280;30041;48.300;16.352;2023-03-25T05:36:00;99097.31;;;23.81;41.60
43312;BME280;30041;48.300;16.352;2023-03-25T05:38:25;99099.75;;;23.83;41.52
43312;BME280;30041;48.300;16.352;2023-03-25T05:40:51;99100.28;;;23.80;41.80
43312;BME280;30041;48.300;16.352;2023-03-25T05:43:17;99097.84;;;23.83;41.78
43312;BME280;30041;48.300;16.352;2023-03-25T05:45:43;99095.97;;;23.84;41.78
43312;BME280;30041;48.300;16.352;2023-03-25T05:48:08;99099.50;;;23.85;41.61
43312;BME280;30041;48.300;16.352;2023-03-25T05:50:36;99095.97;;;23.84;41.78
43312;BME280;30041;48.300;16.352;2023-03-25T05:53:02;99103.00;;;23.85;41.53
43312;BME280;30041;48.300;16.352;2023-03-25T05:55:27;99098.66;;;23.84;41.67
43312;BME280;30041;48.300;16.352;2023-03-25T05:57:53;99107.63;;;23.85;41.57
43312;BME280;30041;48.300;16.352;2023-03-25T06:00:19;99107.34;;;23.86;41.75
43312;BME280;30041;48.300;16.352;2023-03-25T06:02:46;99113.84;;;23.85;41.34
43312;BME280;30041;48.300;16.352;2023-03-25T06:05:13;99112.75;;;23.86;41.64
43312;BME280;30041;48.300;16.352;2023-03-25T06:07:44;99110.31;;;23.85;41.59
43312;BME280;30041;48.300;16.352;2023-03-25T06:10:12;99120.06;;;23.86;41.56
43312;BME280;30041;48.300;16.352;2023-03-25T06:12:38;99117.91;;;23.88;41.46
43312;BME280;30041;48.300;16.352;2023-03-25T06:15:08;99130.63;;;23.87;41.79
43312;BME280;30041;48.300;16.352;2023-03-25T06:17:35;99135.50;;;23.85;41.66
43312;BME280;30041;48.300;16.352;2023-03-25T06:20:00;99138.75;;;23.87;41.60
43312;BME280;30041;48.300;16.352;2023-03-25T06:22:28;99146.56;;;23.89;41.74
43312;BME280;30041;48.300;16.352;2023-03-25T06:24:54;99143.06;;;23.88;41.56
43312;BME280;30041;48.300;16.352;2023-03-25T06:27:19;99157.41;;;23.89;41.74
43312;BME280;30041;48.300;16.352;2023-03-25T06:29:45;99157.41;;;23.89;41.58
43312;BME280;30041;48.300;16.352;2023-03-25T06:32:13;99156.59;;;23.88;41.49
43312;BME280;30041;48.300;16.352;2023-03-25T06:34:39;99159.03;;;23.90;41.61
43312;BME280;30041;48.300;16.352;2023-03-25T06:37:04;99155.53;;;23.89;41.60
43312;BME280;30041;48.300;16.352;2023-03-25T06:39:30;99163.38;;;23.91;41.63
43312;BME280;30041;48.300;16.352;2023-03-25T06:41:57;99165.81;;;23.92;41.70
43312;BME280;30041;48.300;16.352;2023-03-25T06:44:23;99170.44;;;23.92;41.63
43312;BME280;30041;48.300;16.352;2023-03-25T06:46:48;99168.53;;;23.92;41.67
43312;BME280;30041;48.300;16.352;2023-03-25T06:49:14;99169.34;;;23.93;41.68
43312;BME280;30041;48.300;16.352;2023-03-25T06:51:40;99160.41;;;23.92;41.56
43312;BME280;30041;48.300;16.352;2023-03-25T06:54:05;99158.50;;;23.93;41.47
43312;BME280;30041;48.300;16.352;2023-03-25T06:56:31;99153.09;;;23.93;41.68
43312;BME280;30041;48.300;16.352;2023-03-25T06:58:56;99148.50;;;23.93;41.36
43312;BME280;30041;48.300;16.352;2023-03-25T07:01:22;99140.66;;;23.92;41.68
43312;BME280;30041;48.300;16.352;2023-03-25T07:03:48;99152.03;;;23.94;41.51
43312;BME280;30041;48.300;16.352;2023-03-25T07:06:16;99145.78;;;23.93;41.50
43312;BME280;30041;48.300;16.352;2023-03-25T07:08:42;99138.75;;;23.92;41.75
43312;BME280;30041;48.300;16.352;2023-03-25T07:11:08;99143.91;;;23.94;41.73
43312;BME280;30041;48.300;16.352;2023-03-25T07:13:34;99144.16;;;23.92;41.75
43312;BME280;30041;48.300;16.352;2023-03-25T07:16:00;99144.97;;;23.93;41.58
43312;BME280;30041;48.300;16.352;2023-03-25T07:18:26;99145.53;;;23.95;41.74
43312;BME280;30041;48.300;16.352;2023-03-25T07:20:52;99136.34;;;23.96;41.80
43312;BME280;30041;48.300;16.352;2023-03-25T07:23:25;99140.09;;;23.95;41.78
43312;BME280;30041;48.300;16.352;2023-03-25T07:25:53;99141.75;;;23.96;41.52
43312;BME280;30041;48.300;16.352;2023-03-25T07:28:19;99140.66;;;23.97;41.71
43312;BME280;30041;48.300;16.352;2023-03-25T07:30:45;99139.03;;;23.96;41.44
43312;BME280;30041;48.300;16.352;2023-03-25T07:33:10;99134.19;;;23.98;41.44
43312;BME280;30041;48.300;16.352;2023-03-25T07:35:39;99143.09;;;23.98;41.47
43312;BME280;30041;48.300;16.352;2023-03-25T07:38:04;99126.06;;;23.98;41.65
43312;BME280;30041;48.300;16.352;2023-03-25T07:40:30;99130.94;;;23.96;41.70
43312;BME280;30041;48.300;16.352;2023-03-25T07:42:55;99127.94;;;23.97;41.75
43312;BME280;30041;48.300;16.352;2023-03-25T07:45:21;99120.09;;;23.96;41.75
43312;BME280;30041;48.300;16.352;2023-03-25T07:47:46;99112.25;;;23.99;41.52
43312;BME280;30041;48.300;16.352;2023-03-25T07:50:12;99125.78;;;23.99;41.64
43312;BME280;30041;48.300;16.352;2023-03-25T07:52:38;99120.09;;;24.01;41.35
43312;BME280;30041;48.300;16.352;2023-03-25T07:55:03;99108.47;;;24.00;41.64
43312;BME280;30041;48.300;16.352;2023-03-25T07:57:29;99110.88;;;24.02;41.35
43312;BME280;30041;48.300;16.352;2023-03-25T07:59:54;99105.47;;;24.02;41.37
43312;BME280;30041;48.300;16.352;2023-03-25T08:02:20;99104.41;;;24.03;41.53
43312;BME280;30041;48.300;16.352;2023-03-25T08:04:45;99107.38;;;24.01;41.48
43312;BME280;30041;48.300;16.352;2023-03-25T08:07:11;99108.19;;;24.02;41.68
43312;BME280;30041;48.300;16.352;2023-03-25T08:09:37;99108.13;;;23.76;41.89
43312;BME280;30041;48.300;16.352;2023-03-25T08:12:02;99107.69;;;23.42;43.32
43312;BME280;30041;48.300;16.352;2023-03-25T08:14:28;99110.59;;;23.30;43.45
43312;BME280;30041;48.300;16.352;2023-03-25T08:16:53;99090.84;;;23.30;43.97
43312;BME280;30041;48.300;16.352;2023-03-25T08:19:19;99099.28;;;23.33;44.25
43312;BME280;30041;48.300;16.352;2023-03-25T08:21:44;99108.69;;;23.26;44.18
43312;BME280;30041;48.300;16.352;2023-03-25T08:24:12;99117.88;;;23.25;44.62
43312;BME280;30041;48.300;16.352;2023-03-25T08:26:38;99115.97;;;23.20;44.53
43312;BME280;30041;48.300;16.352;2023-03-25T08:29:03;99112.69;;;23.18;44.46
43312;BME280;30041;48.300;16.352;2023-03-25T08:31:30;99124.31;;;23.18;44.51
43312;BME280;30041;48.300;16.352;2023-03-25T08:34:00;99126.31;;;23.38;44.06
43312;BME280;30041;48.300;16.352;2023-03-25T08:36:26;99131.44;;;23.35;44.22
43312;BME280;30041;48.300;16.352;2023-03-25T08:38:52;99135.78;;;23.36;44.17
43312;BME280;30041;48.300;16.352;2023-03-25T08:41:18;99131.94;;;23.27;44.68
43312;BME280;30041;48.300;16.352;2023-03-25T08:43:44;99140.53;;;23.18;44.81
43312;BME280;30041;48.300;16.352;2023-03-25T08:46:09;99135.34;;;23.07;44.00
43312;BME280;30041;48.300;16.352;2023-03-25T08:48:35;99140.44;;;23.03;44.26
43312;BME280;30041;48.300;16.352;2023-03-25T08:51:02;99144.00;;;23.09;44.35
43312;BME280;30041;48.300;16.352;2023-03-25T08:53:28;99131.84;;;23.11;44.43
43312;BME280;30041;48.300;16.352;2023-03-25T08:55:55;99132.34;;;23.08;44.49
43312;BME280;30041;48.300;16.352;2023-03-25T08:58:22;99120.19;;;23.06;44.41
43312;BME280;30041;48.300;16.352;2023-03-25T09:00:49;99125.88;;;23.04;44.67
43312;BME280;30041;48.300;16.352;2023-03-25T09:03:15;99139.88;;;23.01;44.69
43312;BME280;30041;48.300;16.352;2023-03-25T09:05:41;99141.78;;;23.00;44.67
43312;BME280;30041;48.300;16.352;2023-03-25T09:08:07;99150.09;;;22.99;44.41
43312;BME280;30041;48.300;16.352;2023-03-25T09:10:32;99146.66;;;23.04;44.33
43312;BME280;30041;48.300;16.352;2023-03-25T09:12:58;99143.69;;;23.05;44.52
43312;BME280;30041;48.300;16.352;2023-03-25T09:15:23;99153.16;;;23.08;44.71
43312;BME280;30041;48.300;16.352;2023-03-25T09:17:49;99147.50;;;23.09;44.18
43312;BME280;30041;48.300;16.352;2023-03-25T09:20:15;99149.34;;;23.04;44.52
43312;BME280;30041;48.300;16.352;2023-03-25T09:22:40;99154.19;;;23.02;44.57
43312;BME280;30041;48.300;16.352;2023-03-25T09:25:06;99146.59;;;22.98;44.27
43312;BME280;30041;48.300;16.352;2023-03-25T09:27:33;99153.38;;;23.01;44.20
43312;BME280;30041;48.300;16.352;2023-03-25T09:29:58;99145.78;;;22.98;44.34
43312;BME280;30041;48.300;16.352;2023-03-25T09:32:24;99143.66;;;23.00;44.53
43312;BME280;30041;48.300;16.352;2023-03-25T09:34:50;99143.38;;;23.02;44.20
43312;BME280;30041;48.300;16.352;2023-03-25T09:37:15;99144.78;;;23.04;44.19
43312;BME280;30041;48.300;16.352;2023-03-25T09:39:41;99141.78;;;23.00;42.44
43312;BME280;30041;48.300;16.352;2023-03-25T09:42:21;99145.13;;;22.86;42.05
43312;BME280;30041;48.300;16.352;2023-03-25T09:45:20;99142.72;;;22.84;43.28
43312;BME280;30041;48.300;16.352;2023-03-25T09:47:55;99148.41;;;22.88;43.33
43312;BME280;30041;48.300;16.352;2023-03-25T09:50:22;99153.00;;;22.87;43.83
43312;BME280;30041;48.300;16.352;2023-03-25T09:55:37;99135.66;;;22.83;44.03
43312;BME280;30041;48.300;16.352;2023-03-25T10:04:07;99160.47;;;23.07;43.34
43312;BME280;30041;48.300;16.352;2023-03-25T10:21:01;99127.66;;;23.36;43.05
43312;BME280;30041;48.300;16.352;2023-03-25T10:26:02;99125.31;;;23.02;44.04
43312;BME280;30041;48.300;16.352;2023-03-25T10:28:38;99118.00;;;23.03;44.38
43312;BME280;30041;48.300;16.352;2023-03-25T10:31:10;99120.97;;;23.06;44.26
43312;BME280;30041;48.300;16.352;2023-03-25T10:33:40;99109.66;;;23.04;44.42
43312;BME280;30041;48.300;16.352;2023-03-25T10:36:13;99113.66;;;23.02;44.70
43312;BME280;30041;48.300;16.352;2023-03-25T10:38:40;99114.75;;;23.00;44.54
43312;BME280;30041;48.300;16.352;2023-03-25T10:41:25;99119.78;;;22.92;44.80
43312;BME280;30041;48.300;16.352;2023-03-25T10:43:51;99118.50;;;22.99;44.71
43312;BME280;30041;48.300;16.352;2023-03-25T10:48:49;99115.97;;;23.20;44.65
43312;BME280;30041;48.300;16.352;2023-03-25T10:51:18;99123.16;;;23.04;44.28
43312;BME280;30041;48.300;16.352;2023-03-25T10:53:47;99130.59;;;22.92;44.58
43312;BME280;30041;48.300;16.352;2023-03-25T10:56:19;99134.97;;;22.98;43.22
43312;BME280;30041;48.300;16.352;2023-03-25T10:58:49;99147.59;;;22.87;43.21
43312;BME280;30041;48.300;16.352;2023-03-25T11:01:18;99145.34;;;22.79;44.14
43312;BME280;30041;48.300;16.352;2023-03-25T11:03:48;99141.53;;;22.75;44.06
43312;BME280;30041;48.300;16.352;2023-03-25T11:06:26;99139.34;;;22.72;44.26
43312;BME280;30041;48.300;16.352;2023-03-25T11:11:41;99143.91;;;22.66;44.43
43312;BME280;30041;48.300;16.352;2023-03-25T11:14:07;99149.56;;;22.65;44.22
43312;BME280;30041;48.300;16.352;2023-03-25T11:16:35;99154.16;;;22.64;44.48
43312;BME280;30041;48.300;16.352;2023-03-25T11:19:04;99164.44;;;22.67;44.59
43312;BME280;30041;48.300;16.352;2023-03-25T11:21:34;99165.25;;;22.68;44.48
43312;BME280;30041;48.300;16.352;2023-03-25T11:24:00;99156.09;;;22.69;44.87
43312;BME280;30041;48.300;16.352;2023-03-25T11:26:36;99160.94;;;22.67;44.87
43312;BME280;30041;48.300;16.352;2023-03-25T11:29:14;99156.88;;;22.64;45.31
43312;BME280;30041;48.300;16.352;2023-03-25T11:31:41;99157.13;;;22.63;45.23
43312;BME280;30041;48.300;16.352;2023-03-25T11:36:46;99148.75;;;22.64;44.91
43312;BME280;30041;48.300;16.352;2023-03-25T11:39:23;99152.75;;;22.62;44.65
43312;BME280;30041;48.300;16.352;2023-03-25T11:41:50;99136.88;;;22.65;45.22
43312;BME280;30041;48.300;16.352;2023-03-25T11:44:28;99147.69;;;22.65;44.39
43312;BME280;30041;48.300;16.352;2023-03-25T11:47:00;99143.00;;;22.55;45.32
43312;BME280;30041;48.300;16.352;2023-03-25T11:49:27;99133.13;;;22.66;45.02
43312;BME280;30041;48.300;16.352;2023-03-25T11:52:11;99146.84;;;22.59;45.39
43312;BME280;30041;48.300;16.352;2023-03-25T11:54:40;99138.00;;;22.69;44.65
43312;BME280;30041;48.300;16.352;2023-03-25T11:57:12;99137.06;;;22.53;45.51
43312;BME280;30041;48.300;16.352;2023-03-25T11:59:46;99131.34;;;22.50;45.72
43312;BME280;30041;48.300;16.352;2023-03-25T12:05:10;99120.19;;;22.41;45.65
43312;BME280;30041;48.300;16.352;2023-03-25T12:07:47;99119.13;;;22.42;45.71
43312;BME280;30041;48.300;16.352;2023-03-25T12:10:19;99116.13;;;22.38;44.37
43312;BME280;30041;48.300;16.352;2023-03-25T12:21:32;99119.06;;;22.37;44.70
43312;BME280;30041;48.300;16.352;2023-03-25T12:27:28;99100.66;;;22.29;45.54
43312;BME280;30041;48.300;16.352;2023-03-25T12:32:55;99105.28;;;22.33;45.52
43312;BME280;30041;48.300;16.352;2023-03-25T12:43:50;99076.28;;;22.24;45.53
43312;BME280;30041;48.300;16.352;2023-03-25T12:49:10;99068.25;;;22.29;45.43
43312;BME280;30041;48.300;16.352;2023-03-25T12:57:39;99065.03;;;22.32;46.04
43312;BME280;30041;48.300;16.352;2023-03-25T13:06:04;99055.66;;;22.40;45.68
43312;BME280;30041;48.300;16.352;2023-03-25T13:08:53;99053.75;;;22.35;45.98
43312;BME280;30041;48.300;16.352;2023-03-25T13:11:28;99052.69;;;22.41;45.80
43312;BME280;30041;48.300;16.352;2023-03-25T13:13:57;99047.56;;;22.40;45.78
43312;BME280;30041;48.300;16.352;2023-03-25T13:16:28;99057.81;;;22.37;45.94
43312;BME280;30041;48.300;16.352;2023-03-25T13:21:35;99040.25;;;22.35;46.17
43312;BME280;30041;48.300;16.352;2023-03-25T13:24:09;99035.66;;;22.35;46.10
43312;BME280;30041;48.300;16.352;2023-03-25T13:26:39;99032.94;;;22.35;46.17
43312;BME280;30041;48.300;16.352;2023-03-25T13:29:16;99034.56;;;22.36;46.00
43312;BME280;30041;48.300;16.352;2023-03-25T13:31:45;99029.97;;;22.37;45.85
43312;BME280;30041;48.300;16.352;2023-03-25T13:34:29;99025.63;;;22.31;45.96
43312;BME280;30041;48.300;16.352;2023-03-25T13:37:10;99017.00;;;22.34;45.90
43312;BME280;30041;48.300;16.352;2023-03-25T13:45:17;99022.16;;;22.35;45.11
43312;BME280;30041;48.300;16.352;2023-03-25T13:47:56;99018.63;;;22.35;43.93
43312;BME280;30041;48.300;16.352;2023-03-25T13:50:24;99020.22;;;22.31;42.85
43312;BME280;30041;48.300;16.352;2023-03-25T13:53:04;99018.31;;;22.26;44.08
43312;BME280;30041;48.300;16.352;2023-03-25T13:55:38;99014.50;;;22.27;44.36
43312;BME280;30041;48.300;16.352;2023-03-25T14:01:07;99021.84;;;22.32;44.42
43312;BME280;30041;48.300;16.352;2023-03-25T14:03:48;99027.19;;;22.27;44.32
43312;BME280;30041;48.300;16.352;2023-03-25T14:06:42;99022.56;;;22.22;44.47
43312;BME280;30041;48.300;16.352;2023-03-25T14:09:49;99021.50;;;22.23;44.27
43312;BME280;30041;48.300;16.352;2023-03-25T14:12:50;99014.41;;;22.17;44.00
43312;BME280;30041;48.300;16.352;2023-03-25T14:15:25;99012.47;;;22.12;43.30
43312;BME280;30041;48.300;16.352;2023-03-25T14:17:53;99023.03;;;22.19;44.21
43312;BME280;30041;48.300;16.352;2023-03-25T14:20:26;99023.56;;;22.16;42.34
43312;BME280;30041;48.300;16.352;2023-03-25T14:22:56;99036.22;;;22.10;41.61
43312;BME280;30041;48.300;16.352;2023-03-25T14:25:38;99032.41;;;22.06;42.88
43312;BME280;30041;48.300;16.352;2023-03-25T14:28:06;99033.53;;;22.10;41.98
43312;BME280;30041;48.300;16.352;2023-03-25T14:30:33;99025.47;;;22.15;42.98
43312;BME280;30041;48.300;16.352;2023-03-25T14:32:59;99034.69;;;22.20;42.78
43312;BME280;30041;48.300;16.352;2023-03-25T14:43:26;99011.16;;;22.15;43.00
43312;BME280;30041;48.300;16.352;2023-03-25T14:48:37;98996.69;;;22.26;43.46
43312;BME280;30041;48.300;16.352;2023-03-25T14:51:08;99002.88;;;22.22;43.72
43312;BME280;30041;48.300;16.352;2023-03-25T14:53:35;98998.75;;;22.19;43.94
43312;BME280;30041;48.300;16.352;2023-03-25T14:56:11;98998.00;;;22.24;43.92
43312;BME280;30041;48.300;16.352;2023-03-25T14:58:40;98996.03;;;22.46;43.52
43312;BME280;30041;48.300;16.352;2023-03-25T15:01:09;98999.81;;;22.50;43.40
43312;BME280;30041;48.300;16.352;2023-03-25T15:03:40;98997.91;;;22.46;42.48
43312;BME280;30041;48.300;16.352;2023-03-25T15:06:10;98999.97;;;22.28;39.81
43312;BME280;30041;48.300;16.352;2023-03-25T15:08:39;98988.78;;;22.20;42.71
43312;BME280;30041;48.300;16.352;2023-03-25T15:11:08;98996.41;;;22.23;43.45